sensor_id;sensor_type;location;lat;lon;timestamp;P1;durP1;ratioP1;P2;durP2;ratioP2
34405;SDS011;20658;45.630;8.886;2022-10-16T00:01:52;46.00;;;31.02;;
34405;SDS011;20658;45.630;8.886;2022-10-16T00:04:25;40.67;;;30.13;;
34405;SDS011;20658;45.630;8.886;2022-10-16T00:06:59;40.72;;;30.70;;
34405;SDS011;20658;45.630;8.886;2022-10-16T00:09:29;42.28;;;30.30;;
34405;SDS011;20658;45.630;8.886;2022-10-16T00:12:02;41.22;;;30.35;;
34405;SDS011;20658;45.630;8.886;2022-10-16T00:14:37;42.17;;;31.83;;
34405;SDS011;20658;45.630;8.886;2022-10-16T00:17:13;39.72;;;29.73;;
34405;SDS011;20658;45.630;8.886;2022-10-16T00:19:46;39.60;;;29.17;;
34405;SDS011;20658;45.630;8.886;2022-10-16T00:22:14;38.42;;;29.77;;
34405;SDS011;20658;45.630;8.886;2022-10-16T00:24:44;37.90;;;29.50;;
34405;SDS011;20658;45.630;8.886;2022-10-16T00:27:12;39.60;;;30.83;;
34405;SDS011;20658;45.630;8.886;2022-10-16T00:29:49;39.35;;;29.98;;
34405;SDS011;20658;45.630;8.886;2022-10-16T00:32:18;42.67;;;30.63;;
34405;SDS011;20658;45.630;8.886;2022-10-16T00:34:52;45.53;;;31.42;;
34405;SDS011;20658;45.630;8.886;2022-10-16T00:37:25;39.83;;;29.08;;
34405;SDS011;20658;45.630;8.886;2022-10-16T00:40:00;38.72;;;29.70;;
34405;SDS011;20658;45.630;8.886;2022-10-16T00:42:34;39.60;;;29.67;;
34405;SDS011;20658;45.630;8.886;2022-10-16T00:45:08;38.05;;;30.30;;
34405;SDS011;20658;45.630;8.886;2022-10-16T00:47:43;36.03;;;28.52;;
34405;SDS011;20658;45.630;8.886;2022-10-16T00:50:16;39.88;;;28.85;;
34405;SDS011;20658;45.630;8.886;2022-10-16T00:52:50;39.50;;;29.98;;
34405;SDS011;20658;45.630;8.886;2022-10-16T00:55:26;42.53;;;31.10;;
34405;SDS011;20658;45.630;8.886;2022-10-16T00:58:01;41.35;;;31.67;;
34405;SDS011;20658;45.630;8.886;2022-10-16T01:00:35;42.00;;;30.77;;
34405;SDS011;20658;45.630;8.886;2022-10-16T01:06:01;40.67;;;30.90;;
34405;SDS011;20658;45.630;8.886;2022-10-16T01:08:45;41.05;;;31.17;;
34405;SDS011;20658;45.630;8.886;2022-10-16T01:11:35;40.65;;;30.08;;
34405;SDS011;20658;45.630;8.886;2022-10-16T01:14:20;41.83;;;30.23;;
34405;SDS011;20658;45.630;8.886;2022-10-16T01:16:56;40.60;;;32.05;;
34405;SDS011;20658;45.630;8.886;2022-10-16T01:19:44;42.47;;;31.08;;
34405;SDS011;20658;45.630;8.886;2022-10-16T01:22:33;38.63;;;31.08;;
34405;SDS011;20658;45.630;8.886;2022-10-16T01:25:19;43.70;;;33.13;;
34405;SDS011;20658;45.630;8.886;2022-10-16T01:28:05;42.10;;;30.73;;
34405;SDS011;20658;45.630;8.886;2022-10-16T01:30:44;40.58;;;30.17;;
34405;SDS011;20658;45.630;8.886;2022-10-16T01:33:14;39.63;;;31.05;;
34405;SDS011;20658;45.630;8.886;2022-10-16T01:35:54;40.42;;;30.48;;
34405;SDS011;20658;45.630;8.886;2022-10-16T01:38:34;42.75;;;32.38;;
34405;SDS011;20658;45.630;8.886;2022-10-16T01:41:09;41.63;;;30.42;;
34405;SDS011;20658;45.630;8.886;2022-10-16T01:43:50;40.20;;;31.70;;
34405;SDS011;20658;45.630;8.886;2022-10-16T01:46:30;45.42;;;33.28;;
34405;SDS011;20658;45.630;8.886;2022-10-16T01:49:05;42.47;;;33.13;;
34405;SDS011;20658;45.630;8.886;2022-10-16T01:51:35;42.42;;;33.08;;
34405;SDS011;20658;45.630;8.886;2022-10-16T01:54:06;39.78;;;32.22;;
34405;SDS011;20658;45.630;8.886;2022-10-16T01:56:42;43.92;;;31.98;;
34405;SDS011;20658;45.630;8.886;2022-10-16T01:59:18;42.13;;;32.15;;
34405;SDS011;20658;45.630;8.886;2022-10-16T02:01:50;42.92;;;31.55;;
34405;SDS011;20658;45.630;8.886;2022-10-16T02:04:30;45.67;;;32.00;;
34405;SDS011;20658;45.630;8.886;2022-10-16T02:07:05;45.45;;;31.35;;
34405;SDS011;20658;45.630;8.886;2022-10-16T02:09:40;45.38;;;32.47;;
34405;SDS011;20658;45.630;8.886;2022-10-16T02:12:10;42.95;;;31.60;;
34405;SDS011;20658;45.630;8.886;2022-10-16T02:14:44;43.58;;;32.28;;
34405;SDS011;20658;45.630;8.886;2022-10-16T02:17:17;42.75;;;32.50;;
34405;SDS011;20658;45.630;8.886;2022-10-16T02:19:52;42.90;;;31.90;;
34405;SDS011;20658;45.630;8.886;2022-10-16T02:22:24;40.85;;;31.98;;
34405;SDS011;20658;45.630;8.886;2022-10-16T02:24:58;42.53;;;31.23;;
34405;SDS011;20658;45.630;8.886;2022-10-16T02:27:38;46.92;;;31.10;;
34405;SDS011;20658;45.630;8.886;2022-10-16T02:30:23;41.17;;;31.10;;
34405;SDS011;20658;45.630;8.886;2022-10-16T02:33:03;43.05;;;32.50;;
34405;SDS011;20658;45.630;8.886;2022-10-16T02:35:41;41.40;;;31.10;;
34405;SDS011;20658;45.630;8.886;2022-10-16T02:38:17;41.33;;;30.77;;
34405;SDS011;20658;45.630;8.886;2022-10-16T02:40:51;42.78;;;31.13;;
34405;SDS011;20658;45.630;8.886;2022-10-16T02:43:25;40.70;;;30.88;;
34405;SDS011;20658;45.630;8.886;2022-10-16T02:46:00;42.20;;;32.67;;
34405;SDS011;20658;45.630;8.886;2022-10-16T02:48:28;42.95;;;31.58;;
34405;SDS011;20658;45.630;8.886;2022-10-16T02:51:02;41.22;;;30.40;;
34405;SDS011;20658;45.630;8.886;2022-10-16T02:53:36;45.30;;;30.58;;
34405;SDS011;20658;45.630;8.886;2022-10-16T02:56:09;41.33;;;32.53;;
34405;SDS011;20658;45.630;8.886;2022-10-16T02:58:43;41.08;;;30.48;;
34405;SDS011;20658;45.630;8.886;2022-10-16T03:01:17;40.38;;;29.73;;
34405;SDS011;20658;45.630;8.886;2022-10-16T03:03:50;41.45;;;31.80;;
34405;SDS011;20658;45.630;8.886;2022-10-16T03:06:24;38.90;;;29.63;;
34405;SDS011;20658;45.630;8.886;2022-10-16T03:08:57;42.83;;;31.38;;
34405;SDS011;20658;45.630;8.886;2022-10-16T03:11:31;40.17;;;30.38;;
34405;SDS011;20658;45.630;8.886;2022-10-16T03:14:05;42.88;;;30.70;;
34405;SDS011;20658;45.630;8.886;2022-10-16T03:16:35;45.00;;;30.25;;
34405;SDS011;20658;45.630;8.886;2022-10-16T03:19:03;45.85;;;31.02;;
34405;SDS011;20658;45.630;8.886;2022-10-16T03:21:36;42.38;;;30.45;;
34405;SDS011;20658;45.630;8.886;2022-10-16T03:24:10;39.38;;;28.45;;
34405;SDS011;20658;45.630;8.886;2022-10-16T03:26:43;40.67;;;31.17;;
34405;SDS011;20658;45.630;8.886;2022-10-16T03:29:12;43.17;;;31.63;;
34405;SDS011;20658;45.630;8.886;2022-10-16T03:31:47;43.72;;;31.33;;
34405;SDS011;20658;45.630;8.886;2022-10-16T03:34:15;43.03;;;30.27;;
34405;SDS011;20658;45.630;8.886;2022-10-16T03:36:44;42.88;;;32.33;;
34405;SDS011;20658;45.630;8.886;2022-10-16T03:39:13;42.90;;;30.83;;
34405;SDS011;20658;45.630;8.886;2022-10-16T03:41:41;39.65;;;31.63;;
34405;SDS011;20658;45.630;8.886;2022-10-16T03:44:15;42.20;;;31.67;;
34405;SDS011;20658;45.630;8.886;2022-10-16T03:46:49;44.05;;;30.75;;
34405;SDS011;20658;45.630;8.886;2022-10-16T03:49:23;43.38;;;32.45;;
34405;SDS011;20658;45.630;8.886;2022-10-16T03:51:51;42.45;;;31.95;;
34405;SDS011;20658;45.630;8.886;2022-10-16T03:54:25;41.15;;;34.10;;
34405;SDS011;20658;45.630;8.886;2022-10-16T03:56:58;46.92;;;32.20;;
34405;SDS011;20658;45.630;8.886;2022-10-16T03:59:32;42.83;;;32.13;;
34405;SDS011;20658;45.630;8.886;2022-10-16T04:02:06;36.70;;;29.80;;
34405;SDS011;20658;45.630;8.886;2022-10-16T04:04:35;42.55;;;32.35;;
34405;SDS011;20658;45.630;8.886;2022-10-16T04:07:03;44.38;;;31.20;;
34405;SDS011;20658;45.630;8.886;2022-10-16T04:09:32;40.03;;;30.50;;
34405;SDS011;20658;45.630;8.886;2022-10-16T04:12:06;41.60;;;31.13;;
34405;SDS011;20658;45.630;8.886;2022-10-16T04:14:34;43.60;;;32.42;;
34405;SDS011;20658;45.630;8.886;2022-10-16T04:17:02;41.80;;;30.02;;
34405;SDS011;20658;45.630;8.886;2022-10-16T04:19:32;39.42;;;30.38;;
34405;SDS011;20658;45.630;8.886;2022-10-16T04:22:01;42.47;;;30.30;;
34405;SDS011;20658;45.630;8.886;2022-10-16T04:24:29;40.30;;;32.17;;
34405;SDS011;20658;45.630;8.886;2022-10-16T04:27:02;42.38;;;31.10;;
34405;SDS011;20658;45.630;8.886;2022-10-16T04:29:31;41.50;;;29.92;;
34405;SDS011;20658;45.630;8.886;2022-10-16T04:31:59;38.38;;;29.35;;
34405;SDS011;20658;45.630;8.886;2022-10-16T04:34:27;38.65;;;30.02;;
34405;SDS011;20658;45.630;8.886;2022-10-16T04:36:57;39.70;;;29.10;;
34405;SDS011;20658;45.630;8.886;2022-10-16T04:39:31;43.38;;;30.98;;
34405;SDS011;20658;45.630;8.886;2022-10-16T04:42:04;39.33;;;28.73;;
34405;SDS011;20658;45.630;8.886;2022-10-16T04:44:34;35.33;;;27.25;;
34405;SDS011;20658;45.630;8.886;2022-10-16T04:47:07;36.72;;;26.98;;
34405;SDS011;20658;45.630;8.886;2022-10-16T04:49:41;39.88;;;28.77;;
34405;SDS011;20658;45.630;8.886;2022-10-16T04:52:15;42.00;;;28.88;;
34405;SDS011;20658;45.630;8.886;2022-10-16T04:54:50;40.60;;;27.95;;
34405;SDS011;20658;45.630;8.886;2022-10-16T04:57:23;39.35;;;28.40;;
34405;SDS011;20658;45.630;8.886;2022-10-16T04:59:52;37.95;;;28.00;;
34405;SDS011;20658;45.630;8.886;2022-10-16T05:02:25;35.55;;;27.25;;
34405;SDS011;20658;45.630;8.886;2022-10-16T05:04:59;37.20;;;28.45;;
34405;SDS011;20658;45.630;8.886;2022-10-16T05:07:33;40.88;;;28.25;;
34405;SDS011;20658;45.630;8.886;2022-10-16T05:10:07;35.90;;;26.85;;
34405;SDS011;20658;45.630;8.886;2022-10-16T05:12:41;39.47;;;27.98;;
34405;SDS011;20658;45.630;8.886;2022-10-16T05:15:14;40.10;;;28.33;;
34405;SDS011;20658;45.630;8.886;2022-10-16T05:17:51;39.42;;;29.55;;
34405;SDS011;20658;45.630;8.886;2022-10-16T05:20:25;35.25;;;27.58;;
34405;SDS011;20658;45.630;8.886;2022-10-16T05:22:55;37.00;;;27.42;;
34405;SDS011;20658;45.630;8.886;2022-10-16T05:25:24;40.22;;;29.95;;
34405;SDS011;20658;45.630;8.886;2022-10-16T05:27:57;38.38;;;28.75;;
34405;SDS011;20658;45.630;8.886;2022-10-16T05:30:30;36.53;;;27.75;;
34405;SDS011;20658;45.630;8.886;2022-10-16T05:33:04;40.33;;;28.40;;
34405;SDS011;20658;45.630;8.886;2022-10-16T05:35:37;38.45;;;27.30;;
34405;SDS011;20658;45.630;8.886;2022-10-16T05:38:12;39.50;;;29.08;;
34405;SDS011;20658;45.630;8.886;2022-10-16T05:40:50;37.28;;;28.92;;
34405;SDS011;20658;45.630;8.886;2022-10-16T05:43:19;38.40;;;27.38;;
34405;SDS011;20658;45.630;8.886;2022-10-16T05:45:55;41.28;;;29.88;;
34405;SDS011;20658;45.630;8.886;2022-10-16T05:48:29;36.60;;;28.70;;
34405;SDS011;20658;45.630;8.886;2022-10-16T05:51:04;38.83;;;29.25;;
34405;SDS011;20658;45.630;8.886;2022-10-16T05:53:37;41.90;;;29.52;;
34405;SDS011;20658;45.630;8.886;2022-10-16T05:56:07;38.78;;;28.67;;
34405;SDS011;20658;45.630;8.886;2022-10-16T05:58:43;38.95;;;28.77;;
34405;SDS011;20658;45.630;8.886;2022-10-16T06:01:12;39.08;;;29.50;;
34405;SDS011;20658;45.630;8.886;2022-10-16T06:03:48;40.80;;;27.55;;
34405;SDS011;20658;45.630;8.886;2022-10-16T06:06:23;39.25;;;28.60;;
34405;SDS011;20658;45.630;8.886;2022-10-16T06:08:54;40.30;;;27.25;;
34405;SDS011;20658;45.630;8.886;2022-10-16T06:11:29;40.00;;;29.17;;
34405;SDS011;20658;45.630;8.886;2022-10-16T06:14:04;43.03;;;28.90;;
34405;SDS011;20658;45.630;8.886;2022-10-16T06:16:38;37.00;;;28.30;;
34405;SDS011;20658;45.630;8.886;2022-10-16T06:19:07;37.53;;;26.55;;
34405;SDS011;20658;45.630;8.886;2022-10-16T06:21:40;36.03;;;27.13;;
34405;SDS011;20658;45.630;8.886;2022-10-16T06:24:15;34.95;;;27.38;;
34405;SDS011;20658;45.630;8.886;2022-10-16T06:26:48;35.92;;;27.67;;
34405;SDS011;20658;45.630;8.886;2022-10-16T06:29:22;37.28;;;26.33;;
34405;SDS011;20658;45.630;8.886;2022-10-16T06:31:55;38.45;;;27.90;;
34405;SDS011;20658;45.630;8.886;2022-10-16T06:34:29;38.53;;;27.65;;
34405;SDS011;20658;45.630;8.886;2022-10-16T06:37:02;36.17;;;27.60;;
34405;SDS011;20658;45.630;8.886;2022-10-16T06:39:37;36.53;;;26.92;;
34405;SDS011;20658;45.630;8.886;2022-10-16T06:42:10;38.60;;;28.73;;
34405;SDS011;20658;45.630;8.886;2022-10-16T06:44:44;39.08;;;26.95;;
34405;SDS011;20658;45.630;8.886;2022-10-16T06:47:17;38.17;;;27.00;;
34405;SDS011;20658;45.630;8.886;2022-10-16T06:49:50;35.58;;;27.35;;
34405;SDS011;20658;45.630;8.886;2022-10-16T06:52:24;37.42;;;26.85;;
34405;SDS011;20658;45.630;8.886;2022-10-16T06:55:01;33.47;;;24.38;;
34405;SDS011;20658;45.630;8.886;2022-10-16T06:57:35;37.83;;;27.70;;
34405;SDS011;20658;45.630;8.886;2022-10-16T07:00:09;35.83;;;26.45;;
34405;SDS011;20658;45.630;8.886;2022-10-16T07:02:43;38.17;;;28.55;;
34405;SDS011;20658;45.630;8.886;2022-10-16T07:05:16;38.13;;;27.33;;
34405;SDS011;20658;45.630;8.886;2022-10-16T07:07:50;39.50;;;27.17;;
34405;SDS011;20658;45.630;8.886;2022-10-16T07:10:24;37.17;;;27.70;;
34405;SDS011;20658;45.630;8.886;2022-10-16T07:12:58;36.30;;;26.95;;
34405;SDS011;20658;45.630;8.886;2022-10-16T07:15:31;44.17;;;28.52;;
34405;SDS011;20658;45.630;8.886;2022-10-16T07:18:04;36.03;;;27.13;;
34405;SDS011;20658;45.630;8.886;2022-10-16T07:20:38;36.50;;;29.02;;
34405;SDS011;20658;45.630;8.886;2022-10-16T07:23:11;38.17;;;27.02;;
34405;SDS011;20658;45.630;8.886;2022-10-16T07:25:46;37.75;;;28.55;;
34405;SDS011;20658;45.630;8.886;2022-10-16T07:28:27;40.58;;;28.92;;
34405;SDS011;20658;45.630;8.886;2022-10-16T07:31:01;38.60;;;28.40;;
34405;SDS011;20658;45.630;8.886;2022-10-16T07:33:30;35.40;;;27.08;;
34405;SDS011;20658;45.630;8.886;2022-10-16T07:36:00;38.33;;;28.35;;
34405;SDS011;20658;45.630;8.886;2022-10-16T07:38:34;35.80;;;28.50;;
34405;SDS011;20658;45.630;8.886;2022-10-16T07:41:09;35.22;;;26.55;;
34405;SDS011;20658;45.630;8.886;2022-10-16T07:43:39;39.60;;;29.10;;
34405;SDS011;20658;45.630;8.886;2022-10-16T07:46:18;37.17;;;27.58;;
34405;SDS011;20658;45.630;8.886;2022-10-16T07:48:54;39.10;;;28.00;;
34405;SDS011;20658;45.630;8.886;2022-10-16T07:51:28;35.67;;;28.25;;
34405;SDS011;20658;45.630;8.886;2022-10-16T07:54:01;34.05;;;26.67;;
34405;SDS011;20658;45.630;8.886;2022-10-16T07:56:36;35.60;;;26.52;;
34405;SDS011;20658;45.630;8.886;2022-10-16T07:59:10;45.40;;;28.75;;
34405;SDS011;20658;45.630;8.886;2022-10-16T08:01:43;38.40;;;27.00;;
34405;SDS011;20658;45.630;8.886;2022-10-16T08:04:16;32.22;;;26.13;;
34405;SDS011;20658;45.630;8.886;2022-10-16T08:06:50;35.78;;;27.48;;
34405;SDS011;20658;45.630;8.886;2022-10-16T08:09:23;39.47;;;27.17;;
34405;SDS011;20658;45.630;8.886;2022-10-16T08:11:58;42.88;;;27.35;;
34405;SDS011;20658;45.630;8.886;2022-10-16T08:14:31;40.95;;;28.42;;
34405;SDS011;20658;45.630;8.886;2022-10-16T08:17:05;35.75;;;27.52;;
34405;SDS011;20658;45.630;8.886;2022-10-16T08:19:38;36.78;;;27.85;;
34405;SDS011;20658;45.630;8.886;2022-10-16T08:22:12;35.33;;;27.23;;
34405;SDS011;20658;45.630;8.886;2022-10-16T08:24:46;38.30;;;29.05;;
34405;SDS011;20658;45.630;8.886;2022-10-16T08:27:15;35.65;;;26.40;;
34405;SDS011;20658;45.630;8.886;2022-10-16T08:29:49;43.50;;;29.33;;
34405;SDS011;20658;45.630;8.886;2022-10-16T08:32:22;39.53;;;29.75;;
34405;SDS011;20658;45.630;8.886;2022-10-16T08:34:55;38.10;;;28.08;;
34405;SDS011;20658;45.630;8.886;2022-10-16T08:37:29;39.25;;;27.75;;
34405;SDS011;20658;45.630;8.886;2022-10-16T08:40:04;39.45;;;28.48;;
34405;SDS011;20658;45.630;8.886;2022-10-16T08:42:50;41.33;;;28.08;;
34405;SDS011;20658;45.630;8.886;2022-10-16T08:45:54;35.42;;;27.60;;
34405;SDS011;20658;45.630;8.886;2022-10-16T08:48:48;41.25;;;29.50;;
34405;SDS011;20658;45.630;8.886;2022-10-16T08:51:25;38.60;;;30.60;;
34405;SDS011;20658;45.630;8.886;2022-10-16T08:54:02;40.92;;;31.38;;
34405;SDS011;20658;45.630;8.886;2022-10-16T08:56:37;41.63;;;30.55;;
34405;SDS011;20658;45.630;8.886;2022-10-16T08:59:12;42.00;;;29.65;;
34405;SDS011;20658;45.630;8.886;2022-10-16T09:01:49;39.20;;;31.52;;
34405;SDS011;20658;45.630;8.886;2022-10-16T09:04:40;43.88;;;31.50;;
34405;SDS011;20658;45.630;8.886;2022-10-16T09:07:28;43.72;;;31.75;;
34405;SDS011;20658;45.630;8.886;2022-10-16T09:10:16;40.42;;;31.50;;
34405;SDS011;20658;45.630;8.886;2022-10-16T09:13:07;41.88;;;31.63;;
34405;SDS011;20658;45.630;8.886;2022-10-16T09:15:48;41.10;;;30.25;;
34405;SDS011;20658;45.630;8.886;2022-10-16T09:18:33;41.47;;;31.40;;
34405;SDS011;20658;45.630;8.886;2022-10-16T09:21:14;43.10;;;31.13;;
34405;SDS011;20658;45.630;8.886;2022-10-16T09:23:50;47.22;;;30.92;;
34405;SDS011;20658;45.630;8.886;2022-10-16T09:26:24;41.58;;;31.63;;
34405;SDS011;20658;45.630;8.886;2022-10-16T09:28:57;43.13;;;32.92;;
34405;SDS011;20658;45.630;8.886;2022-10-16T09:31:32;86.90;;;71.07;;
34405;SDS011;20658;45.630;8.886;2022-10-16T09:34:11;51.97;;;42.05;;
34405;SDS011;20658;45.630;8.886;2022-10-16T09:36:53;54.72;;;38.00;;
34405;SDS011;20658;45.630;8.886;2022-10-16T09:39:28;47.25;;;35.33;;
34405;SDS011;20658;45.630;8.886;2022-10-16T09:42:03;46.80;;;35.70;;
34405;SDS011;20658;45.630;8.886;2022-10-16T09:44:37;51.33;;;35.88;;
34405;SDS011;20658;45.630;8.886;2022-10-16T09:47:14;48.53;;;36.15;;
34405;SDS011;20658;45.630;8.886;2022-10-16T09:49:52;49.80;;;36.58;;
34405;SDS011;20658;45.630;8.886;2022-10-16T09:52:29;44.38;;;35.75;;
34405;SDS011;20658;45.630;8.886;2022-10-16T09:55:12;44.97;;;34.85;;
34405;SDS011;20658;45.630;8.886;2022-10-16T09:57:48;48.17;;;35.60;;
34405;SDS011;20658;45.630;8.886;2022-10-16T10:00:17;49.67;;;35.60;;
34405;SDS011;20658;45.630;8.886;2022-10-16T10:02:53;50.35;;;36.20;;
34405;SDS011;20658;45.630;8.886;2022-10-16T10:05:28;48.95;;;36.33;;
34405;SDS011;20658;45.630;8.886;2022-10-16T10:08:02;47.97;;;35.63;;
34405;SDS011;20658;45.630;8.886;2022-10-16T10:10:39;45.72;;;33.83;;
34405;SDS011;20658;45.630;8.886;2022-10-16T10:13:17;52.60;;;40.00;;
34405;SDS011;20658;45.630;8.886;2022-10-16T10:15:53;52.65;;;38.15;;
34405;SDS011;20658;45.630;8.886;2022-10-16T10:18:28;53.55;;;40.83;;
34405;SDS011;20658;45.630;8.886;2022-10-16T10:21:03;63.15;;;44.03;;
34405;SDS011;20658;45.630;8.886;2022-10-16T10:23:37;54.50;;;41.60;;
34405;SDS011;20658;45.630;8.886;2022-10-16T10:26:11;58.10;;;43.10;;
34405;SDS011;20658;45.630;8.886;2022-10-16T10:28:53;61.90;;;43.03;;
34405;SDS011;20658;45.630;8.886;2022-10-16T10:31:33;58.15;;;41.40;;
34405;SDS011;20658;45.630;8.886;2022-10-16T10:34:32;53.78;;;41.05;;
34405;SDS011;20658;45.630;8.886;2022-10-16T10:37:29;53.58;;;38.80;;
34405;SDS011;20658;45.630;8.886;2022-10-16T10:40:24;63.92;;;44.85;;
34405;SDS011;20658;45.630;8.886;2022-10-16T10:43:16;65.50;;;47.80;;
34405;SDS011;20658;45.630;8.886;2022-10-16T10:46:02;72.47;;;51.45;;
34405;SDS011;20658;45.630;8.886;2022-10-16T10:49:00;72.75;;;50.95;;
34405;SDS011;20658;45.630;8.886;2022-10-16T10:51:54;68.22;;;48.35;;
34405;SDS011;20658;45.630;8.886;2022-10-16T10:54:36;78.68;;;52.78;;
34405;SDS011;20658;45.630;8.886;2022-10-16T10:57:18;64.80;;;48.13;;
34405;SDS011;20658;45.630;8.886;2022-10-16T11:00:06;71.13;;;52.20;;
34405;SDS011;20658;45.630;8.886;2022-10-16T11:02:53;70.47;;;50.38;;
34405;SDS011;20658;45.630;8.886;2022-10-16T11:05:40;74.60;;;53.20;;
34405;SDS011;20658;45.630;8.886;2022-10-16T11:08:16;85.25;;;58.30;;
34405;SDS011;20658;45.630;8.886;2022-10-16T11:10:53;84.97;;;61.47;;
34405;SDS011;20658;45.630;8.886;2022-10-16T11:13:33;91.60;;;66.82;;
34405;SDS011;20658;45.630;8.886;2022-10-16T11:16:13;87.35;;;62.70;;
34405;SDS011;20658;45.630;8.886;2022-10-16T11:18:52;86.53;;;61.78;;
34405;SDS011;20658;45.630;8.886;2022-10-16T11:21:35;78.45;;;57.67;;
34405;SDS011;20658;45.630;8.886;2022-10-16T11:24:20;89.60;;;61.53;;
34405;SDS011;20658;45.630;8.886;2022-10-16T11:26:59;81.82;;;60.70;;
34405;SDS011;20658;45.630;8.886;2022-10-16T11:29:43;81.63;;;60.28;;
34405;SDS011;20658;45.630;8.886;2022-10-16T11:32:23;81.15;;;60.20;;
34405;SDS011;20658;45.630;8.886;2022-10-16T11:35:05;121.07;;;86.03;;
34405;SDS011;20658;45.630;8.886;2022-10-16T11:37:49;88.57;;;64.53;;
34405;SDS011;20658;45.630;8.886;2022-10-16T11:40:28;90.95;;;65.15;;
34405;SDS011;20658;45.630;8.886;2022-10-16T11:43:06;86.18;;;59.88;;
34405;SDS011;20658;45.630;8.886;2022-10-16T11:45:49;79.75;;;58.22;;
34405;SDS011;20658;45.630;8.886;2022-10-16T11:48:27;77.80;;;59.85;;
34405;SDS011;20658;45.630;8.886;2022-10-16T11:51:09;74.43;;;56.92;;
34405;SDS011;20658;45.630;8.886;2022-10-16T11:53:55;69.07;;;52.22;;
34405;SDS011;20658;45.630;8.886;2022-10-16T11:56:33;74.07;;;53.90;;
34405;SDS011;20658;45.630;8.886;2022-10-16T11:59:13;71.43;;;54.35;;
34405;SDS011;20658;45.630;8.886;2022-10-16T12:01:57;70.13;;;54.33;;
34405;SDS011;20658;45.630;8.886;2022-10-16T12:04:50;79.28;;;56.88;;
34405;SDS011;20658;45.630;8.886;2022-10-16T12:07:35;72.90;;;54.97;;
34405;SDS011;20658;45.630;8.886;2022-10-16T12:10:20;78.30;;;56.15;;
34405;SDS011;20658;45.630;8.886;2022-10-16T12:12:56;79.30;;;58.55;;
34405;SDS011;20658;45.630;8.886;2022-10-16T12:15:33;80.95;;;59.63;;
34405;SDS011;20658;45.630;8.886;2022-10-16T12:18:07;80.53;;;59.10;;
34405;SDS011;20658;45.630;8.886;2022-10-16T12:20:54;75.28;;;56.47;;
34405;SDS011;20658;45.630;8.886;2022-10-16T12:23:30;76.95;;;57.63;;
34405;SDS011;20658;45.630;8.886;2022-10-16T12:26:06;77.97;;;58.47;;
34405;SDS011;20658;45.630;8.886;2022-10-16T12:28:39;82.03;;;61.78;;
34405;SDS011;20658;45.630;8.886;2022-10-16T12:31:13;81.53;;;60.33;;
34405;SDS011;20658;45.630;8.886;2022-10-16T12:33:53;75.50;;;58.33;;
34405;SDS011;20658;45.630;8.886;2022-10-16T12:36:32;80.57;;;59.70;;
34405;SDS011;20658;45.630;8.886;2022-10-16T12:39:16;82.05;;;58.35;;
34405;SDS011;20658;45.630;8.886;2022-10-16T12:42:03;79.95;;;58.72;;
34405;SDS011;20658;45.630;8.886;2022-10-16T12:44:50;87.05;;;61.13;;
34405;SDS011;20658;45.630;8.886;2022-10-16T12:47:35;77.65;;;59.95;;
34405;SDS011;20658;45.630;8.886;2022-10-16T12:50:23;79.53;;;56.63;;
34405;SDS011;20658;45.630;8.886;2022-10-16T12:53:03;79.88;;;57.08;;
34405;SDS011;20658;45.630;8.886;2022-10-16T12:55:56;77.88;;;56.67;;
34405;SDS011;20658;45.630;8.886;2022-10-16T12:58:43;71.55;;;57.70;;
34405;SDS011;20658;45.630;8.886;2022-10-16T13:01:29;79.32;;;56.58;;
34405;SDS011;20658;45.630;8.886;2022-10-16T13:07:53;76.90;;;57.92;;
34405;SDS011;20658;45.630;8.886;2022-10-16T13:10:40;73.82;;;53.08;;
34405;SDS011;20658;45.630;8.886;2022-10-16T13:13:34;73.38;;;54.40;;
34405;SDS011;20658;45.630;8.886;2022-10-16T13:16:42;71.93;;;52.30;;
34405;SDS011;20658;45.630;8.886;2022-10-16T13:19:25;72.43;;;51.10;;
34405;SDS011;20658;45.630;8.886;2022-10-16T13:22:11;74.82;;;53.50;;
34405;SDS011;20658;45.630;8.886;2022-10-16T13:27:35;67.63;;;49.47;;
34405;SDS011;20658;45.630;8.886;2022-10-16T13:30:19;65.78;;;47.90;;
34405;SDS011;20658;45.630;8.886;2022-10-16T13:32:53;75.35;;;51.28;;
34405;SDS011;20658;45.630;8.886;2022-10-16T13:35:34;66.43;;;49.22;;
34405;SDS011;20658;45.630;8.886;2022-10-16T13:38:12;67.97;;;50.70;;
34405;SDS011;20658;45.630;8.886;2022-10-16T13:40:49;62.17;;;49.85;;
34405;SDS011;20658;45.630;8.886;2022-10-16T13:43:27;73.63;;;49.10;;
34405;SDS011;20658;45.630;8.886;2022-10-16T13:46:06;69.88;;;49.50;;
34405;SDS011;20658;45.630;8.886;2022-10-16T13:48:55;61.83;;;47.43;;
34405;SDS011;20658;45.630;8.886;2022-10-16T13:51:30;72.85;;;52.63;;
34405;SDS011;20658;45.630;8.886;2022-10-16T13:54:04;76.80;;;52.05;;
34405;SDS011;20658;45.630;8.886;2022-10-16T13:56:41;62.40;;;48.25;;
34405;SDS011;20658;45.630;8.886;2022-10-16T13:59:25;61.97;;;48.95;;
34405;SDS011;20658;45.630;8.886;2022-10-16T14:02:05;70.30;;;50.22;;
34405;SDS011;20658;45.630;8.886;2022-10-16T14:04:51;68.35;;;49.58;;
34405;SDS011;20658;45.630;8.886;2022-10-16T14:07:26;67.93;;;50.08;;
34405;SDS011;20658;45.630;8.886;2022-10-16T14:09:59;69.50;;;49.15;;
34405;SDS011;20658;45.630;8.886;2022-10-16T14:12:38;67.72;;;46.03;;
34405;SDS011;20658;45.630;8.886;2022-10-16T14:15:15;61.22;;;45.65;;
34405;SDS011;20658;45.630;8.886;2022-10-16T14:17:55;61.60;;;46.03;;
34405;SDS011;20658;45.630;8.886;2022-10-16T14:20:30;63.47;;;47.47;;
34405;SDS011;20658;45.630;8.886;2022-10-16T14:23:18;64.15;;;47.85;;
34405;SDS011;20658;45.630;8.886;2022-10-16T14:26:05;63.13;;;47.30;;
34405;SDS011;20658;45.630;8.886;2022-10-16T14:29:00;59.40;;;46.13;;
34405;SDS011;20658;45.630;8.886;2022-10-16T14:31:53;70.28;;;50.40;;
34405;SDS011;20658;45.630;8.886;2022-10-16T14:34:31;62.33;;;47.50;;
34405;SDS011;20658;45.630;8.886;2022-10-16T14:37:07;66.82;;;50.13;;
34405;SDS011;20658;45.630;8.886;2022-10-16T14:39:56;67.57;;;49.88;;
34405;SDS011;20658;45.630;8.886;2022-10-16T14:42:25;67.03;;;49.00;;
34405;SDS011;20658;45.630;8.886;2022-10-16T14:44:58;65.43;;;47.78;;
34405;SDS011;20658;45.630;8.886;2022-10-16T14:47:31;61.65;;;47.00;;
34405;SDS011;20658;45.630;8.886;2022-10-16T14:50:08;72.68;;;48.25;;
34405;SDS011;20658;45.630;8.886;2022-10-16T14:52:42;58.70;;;44.33;;
34405;SDS011;20658;45.630;8.886;2022-10-16T14:55:15;60.00;;;46.28;;
34405;SDS011;20658;45.630;8.886;2022-10-16T14:57:50;62.97;;;46.47;;
34405;SDS011;20658;45.630;8.886;2022-10-16T15:00:24;60.83;;;44.72;;
34405;SDS011;20658;45.630;8.886;2022-10-16T15:02:57;56.85;;;42.85;;
34405;SDS011;20658;45.630;8.886;2022-10-16T15:05:32;65.65;;;46.58;;
34405;SDS011;20658;45.630;8.886;2022-10-16T15:08:06;61.90;;;43.53;;
34405;SDS011;20658;45.630;8.886;2022-10-16T15:10:39;58.50;;;44.70;;
34405;SDS011;20658;45.630;8.886;2022-10-16T15:13:15;60.00;;;43.72;;
34405;SDS011;20658;45.630;8.886;2022-10-16T15:15:48;59.85;;;41.22;;
34405;SDS011;20658;45.630;8.886;2022-10-16T15:18:21;64.05;;;45.70;;
34405;SDS011;20658;45.630;8.886;2022-10-16T15:20:57;59.97;;;42.95;;
34405;SDS011;20658;45.630;8.886;2022-10-16T15:23:31;55.45;;;42.97;;
34405;SDS011;20658;45.630;8.886;2022-10-16T15:26:04;56.42;;;43.45;;